createdAt,value
2023-01-08T00:02:31.802Z,14.27
2023-01-08T00:04:59.453Z,14.28
2023-01-08T00:07:27.369Z,14.23
2023-01-08T00:09:56.497Z,14.33
2023-01-08T00:12:24.168Z,14.26
2023-01-08T00:14:51.978Z,14.36
2023-01-08T00:17:19.995Z,14.30
2023-01-08T00:19:47.601Z,14.32
2023-01-08T00:22:15.233Z,14.29
2023-01-08T00:24:42.875Z,14.31
2023-01-08T00:27:12.051Z,14.27
2023-01-08T00:29:39.647Z,14.38
2023-01-08T00:32:07.292Z,14.35
2023-01-08T00:34:34.960Z,14.32
2023-01-08T00:37:02.644Z,14.11
2023-01-08T00:39:30.325Z,14.23
2023-01-08T00:41:57.957Z,14.10
2023-01-08T00:44:26.888Z,14.11
2023-01-08T00:46:54.537Z,13.95
2023-01-08T00:49:22.115Z,14.13
2023-01-08T00:51:49.820Z,14.02
2023-01-08T00:54:17.432Z,14.08
2023-01-08T00:56:45.077Z,13.84
2023-01-08T00:59:12.720Z,14.13
2023-01-08T01:01:41.839Z,14.10
2023-01-08T01:04:09.587Z,13.68
2023-01-08T01:06:37.227Z,14.18
2023-01-08T01:09:05.056Z,14.15
2023-01-08T01:11:32.695Z,14.19
2023-01-08T01:14:00.394Z,14.19
2023-01-08T01:16:28.267Z,14.12
2023-01-08T01:18:58.311Z,14.17
2023-01-08T01:21:26.584Z,14.21
2023-01-08T01:23:54.638Z,14.09
2023-01-08T01:26:23.308Z,14.26
2023-01-08T01:28:52.797Z,14.21
2023-01-08T01:31:20.575Z,14.30
2023-01-08T01:33:54.578Z,14.34
2023-01-08T01:36:23.923Z,14.08
2023-01-08T01:38:52.497Z,14.36
2023-01-08T01:41:25.096Z,14.08
2023-01-08T01:43:53.068Z,14.39
2023-01-08T01:46:25.167Z,14.12
2023-01-08T01:48:54.405Z,14.36
2023-01-08T01:51:23.375Z,14.33
2023-01-08T01:53:51.105Z,14.39
2023-01-08T01:56:18.719Z,14.37
2023-01-08T01:58:46.405Z,14.32
2023-01-08T02:01:15.144Z,14.31
2023-01-08T02:03:42.932Z,14.27
2023-01-08T02:06:17.219Z,14.36
2023-01-08T02:08:51.849Z,14.33
2023-01-08T02:11:23.144Z,14.17
2023-01-08T02:13:52.988Z,14.30
2023-01-08T02:16:23.107Z,14.00
2023-01-08T02:18:52.499Z,14.01
2023-01-08T02:21:22.623Z,14.17
2023-01-08T02:23:56.522Z,14.13
2023-01-08T02:26:27.160Z,14.03
2023-01-08T02:28:56.432Z,14.07
2023-01-08T02:31:24.328Z,13.97
2023-01-08T02:33:52.108Z,14.00
2023-01-08T02:36:26.802Z,13.96
2023-01-08T02:39:00.723Z,13.89
2023-01-08T02:41:32.449Z,13.56
2023-01-08T02:44:00.045Z,13.88
2023-01-08T02:46:28.576Z,13.51
2023-01-08T02:48:59.196Z,13.80
2023-01-08T02:51:29.161Z,13.43
2023-01-08T02:53:58.605Z,13.50
2023-01-08T02:56:29.386Z,13.72
2023-01-08T02:58:56.971Z,13.76
2023-01-08T03:01:25.986Z,13.73
2023-01-08T03:03:54.740Z,13.48
2023-01-08T03:06:22.435Z,13.63
2023-01-08T03:08:51.191Z,13.44
2023-01-08T03:11:20.489Z,13.66
2023-01-08T03:13:51.837Z,13.62
2023-01-08T03:16:21.343Z,13.68
2023-01-08T03:18:50.815Z,13.62
2023-01-08T03:21:18.570Z,13.61
2023-01-08T03:23:47.118Z,13.61
2023-01-08T03:26:14.993Z,13.53
2023-01-08T03:28:44.728Z,13.57
2023-01-08T03:31:14.607Z,13.62
2023-01-08T03:33:42.285Z,13.64
2023-01-08T03:36:10.454Z,13.57
2023-01-08T03:38:40.624Z,13.18
2023-01-08T03:41:10.568Z,13.60
2023-01-08T03:43:38.157Z,13.57
2023-01-08T03:46:07.925Z,13.62
2023-01-08T03:48:37.020Z,13.62
2023-01-08T03:51:04.772Z,13.66
2023-01-08T03:53:32.421Z,13.68
2023-01-08T03:56:00.016Z,13.61
2023-01-08T03:58:27.567Z,13.65
2023-01-08T04:00:55.562Z,13.25
2023-01-08T04:03:24.529Z,13.61
2023-01-08T04:05:53.598Z,13.67
2023-01-08T04:08:21.171Z,13.70
2023-01-08T04:10:48.908Z,13.69
2023-01-08T04:13:17.345Z,13.64
2023-01-08T04:15:48.772Z,13.60
2023-01-08T04:18:16.375Z,13.58
2023-01-08T04:20:46.246Z,13.56
2023-01-08T04:23:15.166Z,13.60
2023-01-08T04:25:42.886Z,13.57
2023-01-08T04:28:10.472Z,13.54
2023-01-08T04:30:38.340Z,13.51
2023-01-08T04:33:08.798Z,13.58
2023-01-08T04:35:36.393Z,13.64
2023-01-08T04:38:03.948Z,13.66
2023-01-08T04:40:33.396Z,13.57
2023-01-08T04:43:11.674Z,13.56
2023-01-08T04:45:39.238Z,13.54
2023-01-08T04:48:07.563Z,13.52
2023-01-08T04:50:35.416Z,13.49
2023-01-08T04:53:03.042Z,13.56
2023-01-08T04:55:35.572Z,13.39
2023-01-08T04:58:06.384Z,12.54
2023-01-08T05:00:34.072Z,13.20
2023-01-08T05:03:01.715Z,13.46
2023-01-08T05:05:31.398Z,13.50
2023-01-08T05:08:03.835Z,13.48
2023-01-08T05:10:31.506Z,13.46
2023-01-08T05:13:00.817Z,13.46
2023-01-08T05:15:28.462Z,13.46
2023-01-08T05:18:00.283Z,13.47
2023-01-08T05:20:27.947Z,13.46
2023-01-08T05:22:56.275Z,13.17
2023-01-08T05:25:23.885Z,13.47
2023-01-08T05:27:51.610Z,13.49
2023-01-08T05:30:20.759Z,13.45
2023-01-08T05:32:48.414Z,13.53
2023-01-08T05:35:15.976Z,13.55
2023-01-08T05:37:43.603Z,13.53
2023-01-08T05:40:12.458Z,13.51
2023-01-08T05:42:40.176Z,13.54
2023-01-08T05:45:08.967Z,13.55
2023-01-08T05:47:38.023Z,13.53
2023-01-08T05:50:06.328Z,13.63
2023-01-08T05:52:34.057Z,13.59
2023-01-08T05:55:04.945Z,13.55
2023-01-08T05:57:33.075Z,13.59
2023-01-08T06:00:04.743Z,13.53
2023-01-08T06:02:32.507Z,13.50
2023-01-08T06:05:01.475Z,13.16
2023-01-08T06:10:09.853Z,13.45
2023-01-08T06:12:37.464Z,13.40
2023-01-08T06:15:05.865Z,13.40
2023-01-08T06:17:33.562Z,13.35
2023-01-08T06:20:02.662Z,13.32
2023-01-08T06:22:30.243Z,13.32
2023-01-08T06:24:58.508Z,13.34
2023-01-08T06:27:26.088Z,13.31
2023-01-08T06:29:53.771Z,13.30
2023-01-08T06:32:21.407Z,13.37
2023-01-08T06:34:49.105Z,13.38
2023-01-08T06:37:18.095Z,13.38
2023-01-08T06:39:45.750Z,13.34
2023-01-08T06:42:13.297Z,13.32
2023-01-08T06:44:40.976Z,13.45
2023-01-08T06:47:08.517Z,13.47
2023-01-08T06:49:36.268Z,13.47
2023-01-08T06:52:03.836Z,13.43
2023-01-08T06:54:32.909Z,13.47
2023-01-08T06:57:00.529Z,13.43
2023-01-08T06:59:29.510Z,13.40
2023-01-08T07:01:57.276Z,13.40
2023-01-08T07:04:25.057Z,13.40
2023-01-08T07:06:53.718Z,13.44
2023-01-08T07:09:21.508Z,13.46
2023-01-08T07:11:50.414Z,13.55
2023-01-08T07:14:18.121Z,13.57
2023-01-08T07:16:45.660Z,13.62
2023-01-08T07:19:15.296Z,13.56
2023-01-08T07:21:42.845Z,13.58
2023-01-08T07:24:10.861Z,13.51
2023-01-08T07:26:39.520Z,13.42
2023-01-08T07:29:08.788Z,13.34
2023-01-08T07:31:36.443Z,13.41
2023-01-08T07:34:04.337Z,13.32
2023-01-08T07:36:31.886Z,13.36
2023-01-08T07:38:59.613Z,13.32
2023-01-08T07:41:27.298Z,13.30
2023-01-08T07:43:55.013Z,13.30
2023-01-08T07:46:23.953Z,13.26
2023-01-08T07:48:51.882Z,13.30
2023-01-08T07:51:19.589Z,13.30
2023-01-08T07:53:47.318Z,13.27
2023-01-08T07:56:16.312Z,13.20
2023-01-08T07:58:44.107Z,13.24
2023-01-08T08:01:12.423Z,13.23
2023-01-08T08:03:41.799Z,13.20
2023-01-08T08:06:09.860Z,13.21
2023-01-08T08:08:37.849Z,13.20
2023-01-08T08:11:05.890Z,13.21
2023-01-08T08:13:33.793Z,13.19
2023-01-08T08:16:04.994Z,13.18
2023-01-08T08:18:32.911Z,13.13
2023-01-08T08:21:02.013Z,13.14
2023-01-08T08:23:29.923Z,13.16
2023-01-08T08:25:57.635Z,13.14
2023-01-08T08:28:25.438Z,13.12
2023-01-08T08:30:53.581Z,13.15
2023-01-08T08:33:21.469Z,13.14
2023-01-08T08:35:50.172Z,13.18
2023-01-08T08:38:19.479Z,13.16
2023-01-08T08:40:47.400Z,13.17
2023-01-08T08:43:15.338Z,13.15
2023-01-08T08:45:43.010Z,13.11
2023-01-08T08:48:11.235Z,13.17
2023-01-08T08:50:39.047Z,12.80
2023-01-08T08:53:07.059Z,13.23
2023-01-08T08:55:36.159Z,13.26
2023-01-08T08:58:05.379Z,13.29
2023-01-08T09:00:33.097Z,13.13
2023-01-08T09:03:01.132Z,13.25
2023-01-08T09:05:30.107Z,13.25
2023-01-08T09:07:57.905Z,13.23
2023-01-08T09:10:25.615Z,13.17
2023-01-08T09:12:55.534Z,13.12
2023-01-08T09:15:23.470Z,13.06
2023-01-08T09:17:55.365Z,13.08
2023-01-08T09:20:28.995Z,13.12
2023-01-08T09:22:59.034Z,13.24
2023-01-08T09:25:26.757Z,13.39
2023-01-08T09:28:01.337Z,13.37
2023-01-08T09:30:29.411Z,13.42
2023-01-08T09:33:02.378Z,13.40
2023-01-08T09:35:30.529Z,13.41
2023-01-08T09:37:58.537Z,13.45
2023-01-08T09:40:29.833Z,13.57
2023-01-08T09:42:59.975Z,13.76
2023-01-08T09:45:29.739Z,13.88
2023-01-08T09:47:57.470Z,13.90
2023-01-08T09:50:25.244Z,13.94
2023-01-08T09:52:52.828Z,13.95
2023-01-08T09:55:20.591Z,13.97
2023-01-08T09:57:48.142Z,13.96
2023-01-08T10:00:17.186Z,13.96
2023-01-08T10:02:46.184Z,14.35
2023-01-08T10:05:15.046Z,14.64
2023-01-08T10:07:42.704Z,14.76
2023-01-08T10:10:18.478Z,14.75
2023-01-08T10:12:46.071Z,15.06
2023-01-08T10:15:15.255Z,16.94
2023-01-08T10:17:43.898Z,18.85
2023-01-08T10:20:14.879Z,20.97
2023-01-08T10:22:42.647Z,22.36
2023-01-08T10:25:11.115Z,23.67
2023-01-08T10:27:46.642Z,24.82
2023-01-08T10:30:17.277Z,25.55
2023-01-08T10:32:48.576Z,26.09
2023-01-08T10:35:18.827Z,26.11
2023-01-08T10:37:47.440Z,26.37
2023-01-08T10:40:29.355Z,26.50
2023-01-08T10:42:57.658Z,27.25
2023-01-08T10:45:26.289Z,27.80
2023-01-08T10:47:56.355Z,28.17
2023-01-08T10:50:26.667Z,27.99
2023-01-08T10:52:55.095Z,27.27
2023-01-08T10:55:24.341Z,26.54
2023-01-08T10:57:59.028Z,26.27
2023-01-08T11:00:28.266Z,24.51
2023-01-08T11:02:56.729Z,22.95
2023-01-08T11:05:32.558Z,21.76
2023-01-08T11:08:00.833Z,20.58
2023-01-08T11:10:28.880Z,19.55
2023-01-08T11:12:57.477Z,19.19
2023-01-08T11:15:29.461Z,18.54
2023-01-08T11:18:08.093Z,18.39
2023-01-08T11:20:37.211Z,17.85
2023-01-08T11:23:07.900Z,17.74
2023-01-08T11:25:35.617Z,17.75
2023-01-08T11:28:03.443Z,18.57
2023-01-08T11:30:32.343Z,19.67
2023-01-08T11:33:03.360Z,20.69
2023-01-08T11:35:33.951Z,20.30
2023-01-08T11:38:04.159Z,19.53
2023-01-08T11:40:35.988Z,18.68
2023-01-08T11:43:16.503Z,18.45
2023-01-08T11:45:52.221Z,17.65
2023-01-08T11:48:28.983Z,17.69
2023-01-08T11:51:06.120Z,17.33
2023-01-08T11:53:37.902Z,17.16
2023-01-08T11:56:13.139Z,16.83
2023-01-08T11:58:49.332Z,16.50
2023-01-08T12:01:27.641Z,16.32
2023-01-08T12:04:01.676Z,16.05
2023-01-08T12:09:14.611Z,15.81
2023-01-08T12:11:46.648Z,16.11
2023-01-08T12:14:22.812Z,15.90
2023-01-08T12:17:01.433Z,15.95
2023-01-08T12:19:39.125Z,16.02
2023-01-08T12:22:21.401Z,15.95
2023-01-08T12:25:21.236Z,15.80
2023-01-08T12:27:57.330Z,15.83
2023-01-08T12:30:27.580Z,15.98
2023-01-08T12:32:56.918Z,15.78
2023-01-08T12:35:26.102Z,15.80
2023-01-08T12:37:55.865Z,15.83
2023-01-08T12:40:26.780Z,17.29
2023-01-08T12:43:01.144Z,18.49
2023-01-08T12:45:30.252Z,20.26
2023-01-08T12:48:00.381Z,20.21
2023-01-08T12:50:38.468Z,19.52
2023-01-08T12:53:10.132Z,18.93
2023-01-08T12:55:46.704Z,18.43
2023-01-08T12:58:25.275Z,18.35
2023-01-08T13:00:57.196Z,19.26
2023-01-08T13:03:26.486Z,19.66
2023-01-08T13:05:54.059Z,19.12
2023-01-08T13:08:29.427Z,18.24
2023-01-08T13:10:58.606Z,18.03
2023-01-08T13:13:27.963Z,17.51
2023-01-08T13:16:18.535Z,16.89
2023-01-08T13:18:55.974Z,16.92
2023-01-08T13:21:31.783Z,16.54
2023-01-08T13:24:04.754Z,16.47
2023-01-08T13:26:35.096Z,16.27
2023-01-08T13:29:24.516Z,16.12
2023-01-08T13:31:52.460Z,16.14
2023-01-08T13:34:22.370Z,15.90
2023-01-08T13:36:56.553Z,15.88
2023-01-08T13:39:24.847Z,16.19
2023-01-08T13:42:01.386Z,16.26
2023-01-08T13:44:30.853Z,16.30
2023-01-08T13:46:59.392Z,16.00
2023-01-08T13:49:29.081Z,16.26
2023-01-08T13:51:56.670Z,15.94
2023-01-08T13:54:31.116Z,15.80
2023-01-08T13:57:05.595Z,15.43
2023-01-08T13:59:44.365Z,15.64
2023-01-08T14:02:24.405Z,15.55
2023-01-08T14:04:52.361Z,15.25
2023-01-08T14:07:20.044Z,15.54
2023-01-08T14:09:47.601Z,15.52
2023-01-08T14:12:25.836Z,15.41
2023-01-08T14:14:54.275Z,15.37
2023-01-08T14:17:23.294Z,15.31
2023-01-08T14:19:50.911Z,15.38
2023-01-08T14:22:20.570Z,15.38
2023-01-08T14:24:52.248Z,15.41
2023-01-08T14:27:21.240Z,15.27
2023-01-08T14:29:50.286Z,15.35
2023-01-08T14:32:18.633Z,15.36
2023-01-08T14:34:46.414Z,15.31
2023-01-08T14:37:14.289Z,15.27
2023-01-08T14:39:42.053Z,15.13
2023-01-08T14:42:28.031Z,15.15
2023-01-08T14:44:57.561Z,14.98
2023-01-08T14:47:26.091Z,14.86
2023-01-08T14:49:54.213Z,14.85
2023-01-08T14:52:21.837Z,14.55
2023-01-08T14:54:50.547Z,14.85
2023-01-08T14:57:18.516Z,14.74
2023-01-08T14:59:49.273Z,14.71
2023-01-08T15:02:25.952Z,14.31
2023-01-08T15:05:05.462Z,14.66
2023-01-08T15:07:33.125Z,14.54
2023-01-08T15:10:02.452Z,14.61
2023-01-08T15:12:31.617Z,14.57
2023-01-08T15:15:10.428Z,14.58
2023-01-08T15:17:39.661Z,14.52
2023-01-08T15:20:17.389Z,14.23
2023-01-08T15:22:45.299Z,14.52
2023-01-08T15:25:16.878Z,14.48
2023-01-08T15:27:53.242Z,14.50
2023-01-08T15:30:25.772Z,14.50
2023-01-08T15:32:54.873Z,14.52
2023-01-08T15:35:25.686Z,14.52
2023-01-08T15:37:53.437Z,14.51
2023-01-08T15:40:21.004Z,14.49
2023-01-08T15:43:06.339Z,14.21
2023-01-08T15:45:34.074Z,14.41
2023-01-08T15:48:04.100Z,14.40
2023-01-08T15:50:32.700Z,14.29
2023-01-08T15:53:01.013Z,14.35
2023-01-08T15:55:28.650Z,14.32
2023-01-08T15:57:56.240Z,14.12
2023-01-08T16:00:23.827Z,14.22
2023-01-08T16:02:52.089Z,14.12
2023-01-08T16:05:22.512Z,14.13
2023-01-08T16:07:50.185Z,13.96
2023-01-08T16:10:18.101Z,13.82
2023-01-08T16:12:45.891Z,14.00
2023-01-08T16:15:13.977Z,14.09
2023-01-08T16:17:41.566Z,14.16
2023-01-08T16:20:10.293Z,14.11
2023-01-08T16:22:39.307Z,14.14
2023-01-08T16:25:07.856Z,14.03
2023-01-08T16:27:38.164Z,14.14
2023-01-08T16:30:07.788Z,14.15
2023-01-08T16:32:35.380Z,14.08
2023-01-08T16:35:12.156Z,13.89
2023-01-08T16:37:41.098Z,13.81
2023-01-08T16:40:14.238Z,13.80
2023-01-08T16:42:41.883Z,13.75
2023-01-08T16:45:10.252Z,13.70
2023-01-08T16:47:38.596Z,13.19
2023-01-08T16:50:06.998Z,13.57
2023-01-08T16:52:34.571Z,13.49
2023-01-08T16:55:03.666Z,13.45
2023-01-08T16:57:31.327Z,13.46
2023-01-08T17:00:00.945Z,13.43
2023-01-08T17:02:28.625Z,13.40
2023-01-08T17:04:56.317Z,13.36
2023-01-08T17:07:24.232Z,13.25
2023-01-08T17:09:51.965Z,13.42
2023-01-08T17:12:23.249Z,13.37
2023-01-08T17:14:51.294Z,13.52
2023-01-08T17:17:18.973Z,13.57
2023-01-08T17:19:46.644Z,13.61
2023-01-08T17:22:14.305Z,13.53
2023-01-08T17:24:42.156Z,13.55
2023-01-08T17:27:11.322Z,13.14
2023-01-08T17:29:40.375Z,13.40
2023-01-08T17:32:07.984Z,13.28
2023-01-08T17:34:35.828Z,13.22
2023-01-08T17:37:03.455Z,13.04
2023-01-08T17:39:31.114Z,13.09
2023-01-08T17:42:16.364Z,13.12
2023-01-08T17:44:45.289Z,13.05
2023-01-08T17:47:13.157Z,13.10
2023-01-08T17:49:40.879Z,13.01
2023-01-08T17:52:09.685Z,13.10
2023-01-08T17:54:37.415Z,13.03
2023-01-08T17:57:06.093Z,12.92
2023-01-08T17:59:33.778Z,12.93
2023-01-08T18:02:03.020Z,12.88
2023-01-08T18:04:31.702Z,12.86
2023-01-08T18:06:59.345Z,12.84
2023-01-08T18:11:56.436Z,12.91
2023-01-08T18:14:24.439Z,12.86
2023-01-08T18:16:53.154Z,12.85
2023-01-08T18:19:22.576Z,12.94
2023-01-08T18:21:50.345Z,12.96
2023-01-08T18:24:18.136Z,13.00
2023-01-08T18:26:46.482Z,13.00
2023-01-08T18:29:14.601Z,13.01
2023-01-08T18:31:44.991Z,13.04
2023-01-08T18:34:15.031Z,12.88
2023-01-08T18:36:46.653Z,12.98
2023-01-08T18:39:14.941Z,13.03
2023-01-08T18:42:00.417Z,13.04
2023-01-08T18:44:28.172Z,13.02
2023-01-08T18:46:55.987Z,13.01
2023-01-08T18:49:24.512Z,12.98
2023-01-08T18:51:53.699Z,13.01
2023-01-08T18:54:21.625Z,12.99
2023-01-08T18:56:51.048Z,12.97
2023-01-08T18:59:18.826Z,12.98
2023-01-08T19:01:46.840Z,12.96
2023-01-08T19:04:15.389Z,13.01
2023-01-08T19:06:43.158Z,13.03
2023-01-08T19:09:12.239Z,13.01
2023-01-08T19:11:39.979Z,12.95
2023-01-08T19:14:14.690Z,13.01
2023-01-08T19:16:43.586Z,12.99
2023-01-08T19:19:11.326Z,13.04
2023-01-08T19:21:38.985Z,12.95
2023-01-08T19:24:07.272Z,12.97
2023-01-08T19:26:36.337Z,13.03
2023-01-08T19:29:04.993Z,13.01
2023-01-08T19:31:33.047Z,13.04
2023-01-08T19:34:01.058Z,13.08
2023-01-08T19:36:28.948Z,12.86
2023-01-08T19:38:57.479Z,13.13
2023-01-08T19:41:42.490Z,13.14
2023-01-08T19:44:11.740Z,13.14
2023-01-08T19:46:39.701Z,13.17
2023-01-08T19:49:07.324Z,13.15
2023-01-08T19:51:35.130Z,13.17
2023-01-08T19:54:02.894Z,13.17
2023-01-08T19:56:30.844Z,13.24
2023-01-08T19:58:58.572Z,13.25
2023-01-08T20:01:28.525Z,13.23
2023-01-08T20:03:56.877Z,13.25
2023-01-08T20:06:26.142Z,13.19
2023-01-08T20:08:58.198Z,13.18
2023-01-08T20:11:26.167Z,12.92
2023-01-08T20:13:55.430Z,13.19
2023-01-08T20:16:34.009Z,12.97
2023-01-08T20:19:04.367Z,13.04
2023-01-08T20:21:34.178Z,13.01
2023-01-08T20:24:03.890Z,12.94
2023-01-08T20:26:32.521Z,12.88
2023-01-08T20:29:00.173Z,12.85
2023-01-08T20:31:30.733Z,12.64
2023-01-08T20:33:58.616Z,12.70
2023-01-08T20:36:29.116Z,12.59
2023-01-08T20:38:57.719Z,12.69
2023-01-08T20:41:26.661Z,12.66
2023-01-08T20:43:56.037Z,12.67
2023-01-08T20:46:24.067Z,12.62
2023-01-08T20:48:51.866Z,12.63
2023-01-08T20:51:19.687Z,12.55
2023-01-08T20:53:48.812Z,12.63
2023-01-08T20:56:16.617Z,12.62
2023-01-08T20:58:45.605Z,12.70
2023-01-08T21:01:14.402Z,12.72
2023-01-08T21:03:43.535Z,12.81
2023-01-08T21:06:12.540Z,12.84
2023-01-08T21:08:40.357Z,12.77
2023-01-08T21:11:09.769Z,12.81
2023-01-08T21:13:37.577Z,12.82
2023-01-08T21:16:07.511Z,12.89
2023-01-08T21:18:35.439Z,12.97
2023-01-08T21:21:10.229Z,12.95
2023-01-08T21:23:37.940Z,13.05
2023-01-08T21:26:10.630Z,13.06
2023-01-08T21:28:39.950Z,13.15
2023-01-08T21:31:09.076Z,13.08
2023-01-08T21:33:40.297Z,13.18
2023-01-08T21:36:09.494Z,13.23
2023-01-08T21:38:37.320Z,13.25
2023-01-08T21:41:06.011Z,13.19
2023-01-08T21:43:51.906Z,13.24
2023-01-08T21:46:20.920Z,13.27
2023-01-08T21:48:51.560Z,13.32
2023-01-08T21:51:36.748Z,13.31
2023-01-08T21:54:05.048Z,13.29
2023-01-08T21:56:32.647Z,13.44
2023-01-08T21:59:00.451Z,13.43
2023-01-08T22:01:30.254Z,13.42
2023-01-08T22:03:58.206Z,13.40
2023-01-08T22:06:25.996Z,13.36
2023-01-08T22:08:56.300Z,13.34
2023-01-08T22:11:24.742Z,13.24
2023-01-08T22:13:52.313Z,13.28
2023-01-08T22:16:19.978Z,13.29
2023-01-08T22:18:48.933Z,13.26
2023-01-08T22:21:16.559Z,13.28
2023-01-08T22:23:44.110Z,13.21
2023-01-08T22:26:12.486Z,13.20
2023-01-08T22:28:40.030Z,13.09
2023-01-08T22:31:07.976Z,13.07
2023-01-08T22:33:35.567Z,13.10
2023-01-08T22:36:04.736Z,13.04
2023-01-08T22:38:32.300Z,13.02
2023-01-08T22:41:00.013Z,13.05
2023-01-08T22:43:27.659Z,13.01
2023-01-08T22:45:55.317Z,13.00
2023-01-08T22:48:22.972Z,13.03
2023-01-08T22:50:50.583Z,12.94
2023-01-08T22:53:19.588Z,12.86
2023-01-08T22:55:47.780Z,12.86
2023-01-08T22:58:15.588Z,12.81
2023-01-08T23:00:43.213Z,12.82
2023-01-08T23:03:10.854Z,12.82
2023-01-08T23:05:38.499Z,12.77
2023-01-08T23:08:06.491Z,12.75
2023-01-08T23:10:35.625Z,12.74
2023-01-08T23:13:04.606Z,12.52
2023-01-08T23:15:32.224Z,12.61
2023-01-08T23:17:59.788Z,12.59
2023-01-08T23:20:27.415Z,12.59
2023-01-08T23:22:54.991Z,12.59
2023-01-08T23:25:22.638Z,12.60
2023-01-08T23:27:51.904Z,12.57
2023-01-08T23:30:19.660Z,12.58
2023-01-08T23:32:47.323Z,12.52
2023-01-08T23:35:14.876Z,12.54
2023-01-08T23:37:42.580Z,12.49
2023-01-08T23:40:11.599Z,12.47
2023-01-08T23:42:39.343Z,12.36
2023-01-08T23:45:11.264Z,12.35
2023-01-08T23:47:39.018Z,12.33
2023-01-08T23:50:07.719Z,12.35
2023-01-08T23:52:35.344Z,12.31
2023-01-08T23:55:02.891Z,12.24
2023-01-08T23:57:30.514Z,12.15
2023-01-08T23:59:58.047Z,12.13
